»·PEaware :: SWA6567 KSAN-KLAS

SWA6567 :: KSAN-KLAS

FLIGHT INFORMATION

Flight Status: Arrived
Operator:
Southwest Airlines
More flights by this operator :: More flights under this callsign
Pilot: Jaden S. (17663)
Aircraft: BOEING 737-800
(B738)
More flights by this aircraft type
Origin: KSAN San Diego Intl-Lindbergh
United States
Destination: KLAS McCarran Intl
United States
More flights between these airports :: More routes between these airports
Route: +PADRZ2 CHKNN SEBBY YELAH MISEN KEPEC6
File this flight plan on PilotEdge
Remarks:
Altitude:
(Current/Filed)
31,000ft
Speed:
(Current/Filed)
400kts
Departed: 28-Dec-17 10:33 AM
Arrived: 28-Dec-17 11:27 AM
Distance/Time
Traveled:
225nm/0:54
Distance/Time
To Go:
Arrived

Flight Plot

Page will automatically refresh every two minutes.

Flight plan parsing failed; only flown route is shown


Map Options




Map Legend


Flown Route
Filed Route
Departure Airport
Arrival Airport
Navaid (VOR, NDB)
Fix

Horizontal Profiles

Position Reports

Time Latitude Longitude Heading Altitude Ground
Speed
28-Dec-17 09:35 32.733251 -117.196014 197 22ft 0kts
28-Dec-17 09:36 32.733251 -117.196014 197 22ft 0kts
28-Dec-17 09:37 32.733251 -117.196014 197 22ft 0kts
28-Dec-17 09:38 32.733251 -117.196014 197 23ft 0kts
28-Dec-17 09:39 32.733251 -117.196014 197 22ft 0kts
28-Dec-17 09:40 32.733251 -117.196014 197 22ft 0kts
28-Dec-17 09:41 32.733251 -117.196014 197 22ft 0kts
28-Dec-17 09:42 32.733251 -117.196014 197 22ft 0kts
28-Dec-17 09:43 32.733251 -117.196014 197 22ft 0kts
28-Dec-17 09:44 32.733251 -117.196014 197 22ft 0kts
28-Dec-17 09:45 32.733251 -117.196014 197 22ft 0kts
28-Dec-17 09:46 32.733251 -117.196014 197 22ft 0kts
28-Dec-17 09:47 32.733251 -117.196014 197 22ft 0kts
28-Dec-17 09:48 32.733251 -117.196014 197 22ft 0kts
28-Dec-17 09:49 32.733251 -117.196014 197 22ft 0kts
28-Dec-17 09:50 32.733251 -117.196014 197 22ft 0kts
28-Dec-17 09:51 32.733251 -117.196014 197 22ft 0kts
28-Dec-17 09:52 32.733251 -117.196014 197 22ft 0kts
28-Dec-17 09:53 32.733251 -117.196014 197 22ft 0kts
28-Dec-17 09:54 32.733251 -117.196014 197 22ft 0kts
28-Dec-17 09:55 32.733251 -117.196014 197 22ft 0kts
28-Dec-17 09:56 32.733251 -117.196014 197 22ft 0kts
28-Dec-17 09:57 32.733251 -117.196014 197 22ft 0kts
28-Dec-17 09:58 32.733251 -117.196014 197 22ft 0kts
28-Dec-17 09:59 32.733251 -117.196014 197 22ft 0kts
28-Dec-17 10:00 32.733251 -117.196014 197 22ft 0kts
28-Dec-17 10:01 32.733251 -117.196014 197 22ft 0kts
28-Dec-17 10:02 32.733251 -117.196014 197 22ft 0kts
28-Dec-17 10:03 32.733251 -117.196014 197 22ft 0kts
28-Dec-17 10:04 32.733251 -117.196014 197 22ft 0kts
28-Dec-17 10:05 32.733251 -117.196014 197 22ft 0kts
28-Dec-17 10:06 32.733251 -117.196014 197 22ft 0kts
28-Dec-17 10:07 32.733251 -117.196014 197 22ft 0kts
28-Dec-17 10:08 32.733251 -117.196014 197 22ft 0kts
28-Dec-17 10:09 32.733251 -117.196014 197 22ft 0kts
28-Dec-17 10:10 32.733251 -117.196014 197 22ft 0kts
28-Dec-17 10:11 32.733251 -117.196014 197 22ft 0kts
28-Dec-17 10:12 32.733251 -117.196014 197 22ft 0kts
28-Dec-17 10:13 32.733251 -117.196014 197 22ft 0kts
28-Dec-17 10:14 32.733251 -117.196014 197 22ft 0kts
28-Dec-17 10:15 32.733251 -117.196014 197 22ft 0kts
28-Dec-17 10:16 32.733251 -117.196014 197 22ft 0kts
28-Dec-17 10:17 32.733251 -117.196014 197 22ft 0kts
28-Dec-17 10:18 32.733251 -117.196014 197 22ft 0kts
28-Dec-17 10:19 32.733251 -117.196014 197 22ft 0kts
28-Dec-17 10:20 32.733251 -117.196014 197 22ft 0kts
28-Dec-17 10:21 32.733251 -117.196014 197 22ft 0kts
28-Dec-17 10:22 32.733251 -117.196014 197 22ft 0kts
28-Dec-17 10:23 32.733251 -117.196014 197 22ft 0kts
28-Dec-17 10:24 32.733251 -117.196014 197 22ft 0kts
28-Dec-17 10:25 32.733576 -117.195929 182 22ft 2kts
28-Dec-17 10:26 32.734061 -117.196216 90 22ft 1kts
28-Dec-17 10:27 32.734062 -117.196539 90 22ft 0kts
28-Dec-17 10:28 32.734062 -117.196537 90 22ft 0kts
28-Dec-17 10:29 32.734062 -117.196535 90 22ft 0kts
28-Dec-17 10:30 32.734062 -117.196533 90 22ft 0kts
28-Dec-17 10:31 32.734062 -117.196531 90 22ft 0kts
28-Dec-17 10:32 32.734062 -117.196529 90 22ft 0kts
28-Dec-17 10:33 32.734062 -117.196527 90 22ft 0kts
28-Dec-17 10:34 32.734062 -117.196525 90 22ft 0kts
28-Dec-17 10:35 32.733631 -117.194193 106 22ft 19kts
28-Dec-17 10:36 32.732180 -117.188098 105 22ft 16kts
28-Dec-17 10:37 32.730690 -117.182003 106 22ft 18kts
28-Dec-17 10:38 32.729503 -117.176992 89 22ft 7kts
28-Dec-17 10:39 32.731295 -117.180489 287 23ft 85kts
28-Dec-17 10:40 32.746164 -117.224822 303 2069ft 157kts
28-Dec-17 10:41 32.778644 -117.281844 304 3697ft 254kts
28-Dec-17 10:42 32.822517 -117.354396 309 6911ft 279kts
28-Dec-17 10:43 32.870888 -117.428871 308 10115ft 291kts
28-Dec-17 10:44 32.924365 -117.512015 308 12052ft 347kts
28-Dec-17 10:45 32.987819 -117.610773 308 13757ft 390kts
28-Dec-17 10:46 33.061963 -117.705457 336 16213ft 396kts
28-Dec-17 10:47 33.171946 -117.721480 357 18470ft 404kts
28-Dec-17 10:48 33.285461 -117.728258 357 20541ft 413kts
28-Dec-17 10:49 33.399032 -117.735084 357 22371ft 422kts
28-Dec-17 10:50 33.517414 -117.742205 357 24032ft 428kts
28-Dec-17 10:51 33.637547 -117.749459 357 25472ft 436kts
28-Dec-17 10:52 33.760369 -117.756903 357 26747ft 444kts
28-Dec-17 10:53 33.883616 -117.764383 357 28359ft 441kts
28-Dec-17 10:54 34.005246 -117.771810 357 30035ft 435kts
28-Dec-17 10:55 34.115009 -117.724966 42 31246ft 442kts
28-Dec-17 10:56 34.197744 -117.615505 46 31252ft 441kts
28-Dec-17 10:57 34.276691 -117.501895 46 31274ft 442kts
28-Dec-17 10:58 34.355485 -117.386913 46 31300ft 443kts
28-Dec-17 10:59 34.433744 -117.271808 47 31331ft 444kts
28-Dec-17 11:00 34.512265 -117.155622 47 31367ft 444kts
28-Dec-17 11:01 34.590409 -117.039523 47 31385ft 445kts
28-Dec-17 11:02 34.668536 -116.923261 47 31393ft 445kts
28-Dec-17 11:03 34.746987 -116.805990 47 31378ft 446kts
28-Dec-17 11:04 34.824846 -116.688882 47 31372ft 446kts
28-Dec-17 11:05 34.914466 -116.586402 35 29692ft 441kts
28-Dec-17 11:06 35.010524 -116.493328 35 26726ft 439kts
28-Dec-17 11:07 35.103823 -116.401772 37 24523ft 422kts
28-Dec-17 11:08 35.187783 -116.298152 42 22758ft 426kts
28-Dec-17 11:09 35.269080 -116.194938 42 21186ft 417kts
28-Dec-17 11:10 35.349394 -116.093435 42 19641ft 410kts
28-Dec-17 11:11 35.426572 -115.996287 42 18187ft 382kts
28-Dec-17 11:12 35.493433 -115.911979 41 17626ft 316kts
28-Dec-17 11:13 35.543860 -115.847990 42 16092ft 309kts
28-Dec-17 11:14 35.602856 -115.772783 43 14420ft 305kts
28-Dec-17 11:15 35.670477 -115.686413 43 13105ft 298kts
28-Dec-17 11:16 35.727311 -115.613829 43 13010ft 297kts
28-Dec-17 11:17 35.785491 -115.575164 5 13014ft 291kts
28-Dec-17 11:18 35.866477 -115.569355 1 13014ft 290kts
28-Dec-17 11:19 35.947128 -115.564429 8 13006ft 291kts
28-Dec-17 11:20 35.996904 -115.489893 69 12220ft 300kts
28-Dec-17 11:21 36.024011 -115.397769 67 11246ft 273kts
28-Dec-17 11:22 36.026345 -115.304145 93 10184ft 275kts
28-Dec-17 11:23 36.019149 -115.210536 93 9103ft 271kts
28-Dec-17 11:24 36.013164 -115.122922 93 8369ft 239kts
28-Dec-17 11:25 36.008073 -115.041987 93 8022ft 239kts
28-Dec-17 11:26 36.003221 -114.960601 93 7084ft 229kts
28-Dec-17 11:27 36.008269 -114.890892 35 5860ft 204kts
28-Dec-17 11:28 36.059955 -114.889291 313 4476ft 195kts
28-Dec-17 11:29 36.073272 -114.953004 273 4514ft 192kts
28-Dec-17 11:30 36.073742 -115.017748 270 3883ft 172kts
28-Dec-17 11:31 36.073308 -115.073213 269 2986ft 154kts
28-Dec-17 11:32 36.073524 -115.126019 271 2206ft 148kts
28-Dec-17 11:33 36.074264 -115.144491 294 2189ft 0kts
28-Dec-17 11:34 36.074300 -115.144588 294 2189ft 0kts
28-Dec-17 11:35 36.074321 -115.144644 294 2189ft 3kts
28-Dec-17 11:36 36.075704 -115.146435 355 2189ft 9kts
28-Dec-17 11:37 36.076901 -115.146492 356 2189ft 0kts
28-Dec-17 11:38 36.078499 -115.147380 327 2189ft 8kts
28-Dec-17 11:39 36.080614 -115.147697 66 2188ft 6kts
28-Dec-17 11:40 36.080670 -115.147538 67 2189ft 0kts
28-Dec-17 11:41 36.080670 -115.147538 67 2189ft 0kts

Navigation Log

Ident Type
Flight plan parsing failed, navigation log unavailable